Time;durP1;ratioP1;P1;durP2;ratioP2;P2;SDS_P1;SDS_P2;PMS_P1;PMS_P2;Temp;Humidity;BMP_temperature;BMP_pressure;BME280_temperature;BME280_humidity;BME280_pressure;Samples;Min_cycle;Max_cycle;Signal;HPM_P1;HPM_P2
2023/01/10 00:00:38;;;;;;;;;;;;;;;4.39;100.00;100883.88;5022418;28;20729;-72
2023/01/10 00:03:05;;;;;;;;;;;;;;;4.43;100.00;100882.06;5021107;28;19924;-73
2023/01/10 00:05:30;;;;;;;;;;;;;;;4.43;100.00;100888.19;5020193;28;21921;-74
2023/01/10 00:07:57;;;;;;;;;;;;;;;4.47;100.00;100889.81;5008464;28;20007;-72
2023/01/10 00:10:23;;;;;;;;;;;;;;;4.53;100.00;100893.22;5009260;28;19983;-73
2023/01/10 00:15:33;;;;;;;;;;;;;;;4.61;100.00;100907.06;5019838;28;20652;-73
2023/01/10 00:17:58;;;;;;;;;;;;;;;4.63;100.00;100910.50;5021915;28;19934;-73
2023/01/10 00:20:24;;;;;;;;;;;;;;;4.64;100.00;100907.00;5024584;28;19947;-73
2023/01/10 00:22:50;;;;;;;;;;;;;;;4.68;100.00;100919.16;5026484;28;20030;-73
2023/01/10 00:25:18;;;;;;;;;;;;;;;4.69;100.00;100918.25;5027404;28;20395;-73
2023/01/10 00:27:48;;;;;;;;;;;;;;;4.72;100.00;100926.06;4997799;28;20562;-73
2023/01/10 00:30:14;;;;;;;;;;;;;;;4.73;100.00;100919.94;5010981;28;19929;-74
2023/01/10 00:32:43;;;;;;;;;;;;;;;4.76;100.00;100919.84;5028114;28;19963;-72
2023/01/10 00:35:10;;;;;;;;;;;;;;;4.77;100.00;100939.09;5008833;28;20690;-73
2023/01/10 00:37:35;;;;;;;;;;;;;;;4.78;100.00;100934.72;5010402;28;19975;-73
2023/01/10 00:40:01;;;;;;;;;;;;;;;4.79;100.00;100939.06;4980347;28;20354;-73
2023/01/10 00:45:10;;;;;;;;;;;;;;;4.82;100.00;100952.13;5029790;28;20022;-74
2023/01/10 00:47:36;;;;;;;;;;;;;;;4.85;100.00;100949.44;5028023;28;19997;-73
2023/01/10 00:50:04;;;;;;;;;;;;;;;4.86;100.00;100952.03;5009385;28;20414;-73
2023/01/10 00:52:29;;;;;;;;;;;;;;;4.86;100.00;100951.16;5024796;28;19925;-73
2023/01/10 00:54:55;;;;;;;;;;;;;;;4.85;100.00;100957.31;5024421;28;19932;-74
2023/01/10 00:57:20;;;;;;;;;;;;;;;4.84;100.00;100955.56;5022824;28;20046;-73
2023/01/10 00:59:46;;;;;;;;;;;;;;;4.78;100.00;100961.81;5022023;28;20300;-74
2023/01/10 01:02:11;;;;;;;;;;;;;;;4.75;100.00;100959.25;4993523;28;20395;-73
2023/01/10 01:04:36;;;;;;;;;;;;;;;4.71;100.00;100976.81;5006638;28;20024;-73
2023/01/10 01:07:02;;;;;;;;;;;;;;;4.68;100.00;100974.22;5022960;28;19925;-72
2023/01/10 01:09:28;;;;;;;;;;;;;;;4.67;100.00;100980.38;5024061;28;20273;-74
2023/01/10 01:11:55;;;;;;;;;;;;;;;4.68;100.00;100983.88;5008025;28;20008;-73
2023/01/10 01:14:20;;;;;;;;;;;;;;;4.70;100.00;100982.06;5017383;28;20632;-74
2023/01/10 01:16:46;;;;;;;;;;;;;;;4.71;100.00;100991.66;5004378;28;19929;-73
2023/01/10 01:19:11;;;;;;;;;;;;;;;4.73;100.00;100988.13;5022286;28;20324;-74
2023/01/10 01:21:36;;;;;;;;;;;;;;;4.74;100.00;100984.59;5022402;28;19933;-74
2023/01/10 01:24:02;;;;;;;;;;;;;;;4.76;100.00;100988.06;5021615;28;19933;-74
2023/01/10 01:26:27;;;;;;;;;;;;;;;4.79;100.00;100996.78;4993868;28;20438;-73
2023/01/10 01:28:53;;;;;;;;;;;;;;;4.83;100.00;101004.56;5004168;28;19986;-73
2023/01/10 01:31:18;;;;;;;;;;;;;;;4.88;100.00;101012.34;5022051;28;20399;-73
2023/01/10 01:33:45;;;;;;;;;;;;;;;4.91;100.00;101016.66;5022920;28;19933;-73
2023/01/10 01:36:10;;;;;;;;;;;;;;;4.92;100.00;101016.66;5003779;28;19925;-73
2023/01/10 01:38:39;;;;;;;;;;;;;;;4.93;100.00;101015.75;5009539;28;19925;-72
2023/01/10 01:41:55;;;;;;;;;;;;;;;4.95;100.00;101026.22;5010992;28;19928;-72
2023/01/10 01:43:59;;;;;;;;;;;;;;;4.95;100.00;101021.81;5005710;28;20007;-73
2023/01/10 01:46:25;;;;;;;;;;;;;;;4.95;100.00;101024.44;5020214;28;19929;-73
2023/01/10 01:48:50;;;;;;;;;;;;;;;4.96;100.00;101030.56;5003725;28;19986;-72
2023/01/10 01:51:17;;;;;;;;;;;;;;;4.95;100.00;101034.09;5019420;28;19925;-73
2023/01/10 01:53:43;;;;;;;;;;;;;;;4.94;100.00;101030.59;5004564;28;19968;-73
2023/01/10 01:56:11;;;;;;;;;;;;;;;4.94;100.00;101027.97;5003983;28;19929;-72
2023/01/10 01:58:41;;;;;;;;;;;;;;;4.95;100.00;101029.69;4990070;28;20494;-72
2023/01/10 02:01:07;;;;;;;;;;;;;;;4.95;100.00;101034.09;5021927;28;19936;-73
2023/01/10 02:03:32;;;;;;;;;;;;;;;4.96;100.00;101041.91;5008676;28;19925;-72
2023/01/10 02:05:58;;;;;;;;;;;;;;;4.97;100.00;101046.28;5003803;28;19956;-73
2023/01/10 02:08:23;;;;;;;;;;;;;;;4.99;100.00;101041.88;5021125;28;19939;-73
2023/01/10 02:10:53;;;;;;;;;;;;;;;5.04;100.00;101039.16;5009492;28;20661;-73
2023/01/10 02:13:19;;;;;;;;;;;;;;;5.08;100.00;101053.09;5007977;28;20328;-73
2023/01/10 02:15:45;;;;;;;;;;;;;;;5.11;100.00;101053.00;4989291;28;20526;-73
2023/01/10 02:18:10;;;;;;;;;;;;;;;5.15;100.00;101054.69;5006799;28;19956;-73
2023/01/10 02:21:02;;;;;;;;;;;;;;;5.15;100.00;101062.56;5025459;28;19940;-73
2023/01/10 02:23:40;;;;;;;;;;;;;;;5.14;100.00;101056.44;5004744;28;20394;-72
2023/01/10 02:26:14;;;;;;;;;;;;;;;5.13;100.00;101065.22;5009065;28;19924;-74
2023/01/10 02:28:52;;;;;;;;;;;;;;;5.12;100.00;101060.03;5023069;28;19931;-73
2023/01/10 02:31:38;;;;;;;;;;;;;;;5.10;100.00;101062.66;5024839;28;20006;-73
2023/01/10 02:34:06;;;;;;;;;;;;;;;5.08;100.00;101067.09;5026274;28;20293;-73
2023/01/10 02:36:41;;;;;;;;;;;;;;;5.07;100.00;101067.09;5019070;28;20002;-73
2023/01/10 02:39:15;;;;;;;;;;;;;;;5.05;100.00;101067.13;5024974;28;20146;-74
2023/01/10 02:41:44;;;;;;;;;;;;;;;5.05;100.00;101071.53;5024873;28;19925;-74
2023/01/10 02:44:09;;;;;;;;;;;;;;;5.05;100.00;101075.00;5007091;28;19928;-74
2023/01/10 02:46:35;;;;;;;;;;;;;;;5.03;100.00;101077.66;5009752;28;20054;-73
2023/01/10 02:49:00;;;;;;;;;;;;;;;5.03;100.00;101077.66;5008687;28;21518;-73
2023/01/10 02:51:29;;;;;;;;;;;;;;;5.02;100.00;101080.31;5024165;28;19924;-74
2023/01/10 02:53:59;;;;;;;;;;;;;;;5.01;100.00;101082.06;5007929;28;19925;-73
2023/01/10 02:56:44;;;;;;;;;;;;;;;5.02;100.00;101096.91;5008331;28;20002;-73
2023/01/10 02:59:14;;;;;;;;;;;;;;;5.04;100.00;101096.91;5013475;28;19929;-73
2023/01/10 03:01:41;;;;;;;;;;;;;;;5.05;100.00;101097.78;5023583;28;20043;-73
2023/01/10 03:04:07;;;;;;;;;;;;;;;5.06;100.00;101099.50;5023886;28;20316;-73
2023/01/10 03:06:35;;;;;;;;;;;;;;;5.07;100.00;101095.97;5023166;28;19979;-73
2023/01/10 03:09:05;;;;;;;;;;;;;;;5.05;100.00;101092.53;5024777;28;19925;-73
2023/01/10 03:11:40;;;;;;;;;;;;;;;5.04;100.00;101096.91;5013839;28;20063;-74
2023/01/10 03:14:16;;;;;;;;;;;;;;;5.03;100.00;101103.88;5013535;28;19968;-73
2023/01/10 03:16:43;;;;;;;;;;;;;;;5.03;100.00;101105.66;5023454;28;19933;-74
2023/01/10 03:19:10;;;;;;;;;;;;;;;5.01;100.00;101097.81;5005400;28;19925;-73
2023/01/10 03:21:35;;;;;;;;;;;;;;;5.00;100.00;101108.34;5025149;28;20468;-73
2023/01/10 03:24:03;;;;;;;;;;;;;;;4.99;100.00;101104.84;5023946;28;19929;-73
2023/01/10 03:26:30;;;;;;;;;;;;;;;4.98;100.00;101097.88;5007559;28;20219;-73
2023/01/10 03:28:56;;;;;;;;;;;;;;;4.97;100.00;101106.63;5019489;28;19929;-73
2023/01/10 03:31:25;;;;;;;;;;;;;;;4.94;100.00;101111.94;4995560;28;20459;-73
2023/01/10 03:33:50;;;;;;;;;;;;;;;4.90;100.00;101120.75;5009731;28;19925;-74
2023/01/10 03:36:42;;;;;;;;;;;;;;;4.85;100.00;101123.47;5011322;28;19967;-73
2023/01/10 03:39:11;;;;;;;;;;;;;;;4.83;100.00;101121.75;5020745;28;19929;-74
2023/01/10 03:41:36;;;;;;;;;;;;;;;4.82;100.00;101122.63;4979027;28;19929;-73
2023/01/10 03:46:48;;;;;;;;;;;;;;;4.80;100.00;101127.06;5024242;28;20231;-73
2023/01/10 03:49:14;;;;;;;;;;;;;;;4.79;100.00;101126.19;5025337;28;19929;-73
2023/01/10 03:51:39;;;;;;;;;;;;;;;4.78;100.00;101137.56;5008952;28;19951;-73
2023/01/10 03:54:05;;;;;;;;;;;;;;;4.78;100.00;101140.19;5004506;28;19925;-74
2023/01/10 03:56:30;;;;;;;;;;;;;;;4.80;100.00;101140.19;5025278;28;19966;-74
2023/01/10 03:58:55;;;;;;;;;;;;;;;4.82;100.00;101154.13;5005237;28;20295;-74
2023/01/10 04:01:21;;;;;;;;;;;;;;;4.85;100.00;101154.09;5021845;28;20326;-73
2023/01/10 04:03:46;;;;;;;;;;;;;;;4.88;100.00;101160.16;5005716;28;19920;-73
2023/01/10 04:06:12;;;;;;;;;;;;;;;4.91;100.00;101153.09;5021246;28;19929;-74
2023/01/10 04:08:37;;;;;;;;;;;;;;;4.92;100.00;101154.84;4993014;28;19979;-74
2023/01/10 04:11:03;;;;;;;;;;;;;;;4.92;100.00;101171.47;5023029;28;19932;-73
2023/01/10 04:13:28;;;;;;;;;;;;;;;4.93;100.00;101167.94;5023115;28;19932;-73
2023/01/10 04:15:54;;;;;;;;;;;;;;;4.92;100.00;101155.72;5007130;28;19974;-73
2023/01/10 04:18:19;;;;;;;;;;;;;;;4.92;100.00;101149.59;5023932;28;19929;-74
2023/01/10 04:20:45;;;;;;;;;;;;;;;4.91;100.00;101168.84;5008447;28;19932;-74
2023/01/10 04:23:10;;;;;;;;;;;;;;;4.89;100.00;101179.38;5023665;28;19928;-74
2023/01/10 04:25:35;;;;;;;;;;;;;;;4.87;100.00;101184.66;5023854;28;19929;-73
2023/01/10 04:28:01;;;;;;;;;;;;;;;4.86;100.00;101182.91;5009744;28;20338;-73
2023/01/10 04:30:26;;;;;;;;;;;;;;;4.84;100.00;101179.44;5027146;28;20003;-74
2023/01/10 04:32:52;;;;;;;;;;;;;;;4.84;100.00;101184.69;5009714;28;19931;-73
2023/01/10 04:35:17;;;;;;;;;;;;;;;4.82;100.00;101185.59;5025005;28;19924;-73
2023/01/10 04:37:43;;;;;;;;;;;;;;;4.82;100.00;101190.84;5028017;28;20483;-73
2023/01/10 04:40:09;;;;;;;;;;;;;;;4.82;100.00;101196.09;5025495;28;19928;-73
2023/01/10 04:42:34;;;;;;;;;;;;;;;4.82;100.00;101190.84;5025243;28;19932;-73
2023/01/10 04:44:59;;;;;;;;;;;;;;;4.82;100.00;101198.72;5027506;28;20016;-72
2023/01/10 04:47:25;;;;;;;;;;;;;;;4.81;100.00;101213.63;5027957;28;19925;-73
2023/01/10 04:49:50;;;;;;;;;;;;;;;4.81;100.00;101220.59;5013700;28;20051;-73
2023/01/10 04:52:16;;;;;;;;;;;;;;;4.79;100.00;101209.28;5027077;28;20017;-73
2023/01/10 04:54:41;;;;;;;;;;;;;;;4.80;100.00;101218.88;5026482;28;20346;-73
2023/01/10 04:57:06;;;;;;;;;;;;;;;4.79;100.00;101220.63;5029293;28;20077;-74
2023/01/10 04:59:32;;;;;;;;;;;;;;;4.79;100.00;101225.03;5006331;28;19944;-74
2023/01/10 05:01:57;;;;;;;;;;;;;;;4.79;100.00;101225.03;5010906;28;19925;-74
2023/01/10 05:04:23;;;;;;;;;;;;;;;4.78;100.00;101229.38;4988464;28;19947;-73
2023/01/10 05:06:48;;;;;;;;;;;;;;;4.77;100.00;101235.53;5021705;28;19933;-74
2023/01/10 05:09:14;;;;;;;;;;;;;;;4.78;100.00;101241.66;5019231;28;20292;-74
2023/01/10 05:11:42;;;;;;;;;;;;;;;4.77;100.00;101248.66;5010702;28;20015;-73
2023/01/10 05:14:08;;;;;;;;;;;;;;;4.77;100.00;101251.28;5003590;28;19929;-73
2023/01/10 05:16:34;;;;;;;;;;;;;;;4.76;100.00;101255.63;5022103;28;19928;-74
2023/01/10 05:18:59;;;;;;;;;;;;;;;4.76;100.00;101254.78;5023687;28;19936;-73
2023/01/10 05:21:24;;;;;;;;;;;;;;;4.73;100.00;101257.44;5003402;28;20631;-73
2023/01/10 05:23:50;;;;;;;;;;;;;;;4.72;100.00;101253.09;5010117;28;20097;-73
2023/01/10 05:26:19;;;;;;;;;;;;;;;4.70;100.00;101263.63;5019336;28;20023;-73
2023/01/10 05:28:45;;;;;;;;;;;;;;;4.67;100.00;101258.41;5010361;28;19925;-73
2023/01/10 05:31:11;;;;;;;;;;;;;;;4.68;100.00;101257.50;5021260;28;20588;-73
2023/01/10 05:33:37;;;;;;;;;;;;;;;4.66;100.00;101259.28;5021450;28;19940;-73
2023/01/10 05:36:03;;;;;;;;;;;;;;;4.63;100.00;101256.69;5020657;28;19921;-73
2023/01/10 05:38:29;;;;;;;;;;;;;;;4.59;100.00;101255.88;5006357;28;19925;-73
2023/01/10 05:40:55;;;;;;;;;;;;;;;4.56;100.00;101265.53;5020987;28;19936;-73
2023/01/10 05:43:21;;;;;;;;;;;;;;;4.52;100.00;101261.25;5007198;28;19926;-73
2023/01/10 05:45:46;;;;;;;;;;;;;;;4.49;100.00;101273.50;5021911;28;19933;-73
2023/01/10 05:48:11;;;;;;;;;;;;;;;4.45;100.00;101263.94;5023463;28;21683;-74
2023/01/10 05:50:37;;;;;;;;;;;;;;;4.41;100.00;101270.09;5024053;28;19935;-73
2023/01/10 05:53:04;;;;;;;;;;;;;;;4.39;100.00;101271.00;5021486;28;20079;-73
2023/01/10 05:55:30;;;;;;;;;;;;;;;4.33;100.00;101282.44;5019704;28;19925;-73
2023/01/10 05:57:55;;;;;;;;;;;;;;;4.28;100.00;101289.50;5020668;28;19928;-73
2023/01/10 06:00:21;;;;;;;;;;;;;;;4.24;100.00;101287.81;5021638;28;19928;-73
2023/01/10 06:02:46;;;;;;;;;;;;;;;4.20;100.00;101293.06;5019091;28;19925;-73
2023/01/10 06:05:12;;;;;;;;;;;;;;;4.16;100.00;101286.16;5007987;28;20387;-73
2023/01/10 06:07:37;;;;;;;;;;;;;;;4.13;100.00;101290.56;5010003;28;20419;-73
2023/01/10 06:10:03;;;;;;;;;;;;;;;4.07;100.00;101297.59;5020598;28;19936;-73
2023/01/10 06:12:28;;;;;;;;;;;;;;;4.05;100.00;101298.50;5020343;28;20386;-73
2023/01/10 06:14:54;;;;;;;;;;;;;;;4.03;100.00;101292.41;5022055;28;20571;-73
2023/01/10 06:17:19;;;;;;;;;;;;;;;4.01;100.00;101299.41;5021540;28;19920;-73
2023/01/10 06:19:44;;;;;;;;;;;;;;;3.98;100.00;101302.91;5003293;28;20072;-73
2023/01/10 06:22:12;;;;;;;;;;;;;;;3.95;100.00;101297.72;5003358;28;20317;-73
2023/01/10 06:24:37;;;;;;;;;;;;;;;3.91;100.00;101302.13;5020087;28;19928;-73
2023/01/10 06:27:03;;;;;;;;;;;;;;;3.91;100.00;101306.50;5019330;28;19933;-73
2023/01/10 06:29:28;;;;;;;;;;;;;;;3.90;100.00;101304.75;5006445;28;19966;-73
2023/01/10 06:31:54;;;;;;;;;;;;;;;3.88;100.00;101307.38;5019035;28;20501;-73
2023/01/10 06:34:19;;;;;;;;;;;;;;;3.88;100.00;101309.16;5017863;28;19931;-73
2023/01/10 06:36:44;;;;;;;;;;;;;;;3.92;100.00;101318.72;5018546;28;19925;-73
2023/01/10 06:39:10;;;;;;;;;;;;;;;3.99;100.00;101327.38;5022697;28;19935;-73
2023/01/10 06:41:35;;;;;;;;;;;;;;;4.10;100.00;101341.25;5021295;28;20426;-73
2023/01/10 06:44:01;;;;;;;;;;;;;;;4.20;100.00;101347.28;5003794;28;19964;-73
2023/01/10 06:46:26;;;;;;;;;;;;;;;4.28;100.00;101352.41;5023189;28;19960;-73
2023/01/10 06:48:51;;;;;;;;;;;;;;;4.35;100.00;101357.56;5022447;28;19929;-73
2023/01/10 06:51:17;;;;;;;;;;;;;;;4.44;100.00;101347.88;5023009;28;20354;-73
2023/01/10 06:53:42;;;;;;;;;;;;;;;4.51;100.00;101349.53;5023623;28;19924;-73
2023/01/10 06:56:08;;;;;;;;;;;;;;;4.61;100.00;101355.53;5002815;28;20043;-72
2023/01/10 06:58:34;;;;;;;;;;;;;;;4.68;100.00;101362.44;5021512;28;21179;-73
2023/01/10 07:01:00;;;;;;;;;;;;;;;4.74;100.00;101362.34;5007252;28;19936;-73
2023/01/10 07:03:25;;;;;;;;;;;;;;;4.80;100.00;101356.16;5020992;28;20097;-73
2023/01/10 07:05:50;;;;;;;;;;;;;;;4.86;100.00;101365.72;5004330;28;20379;-73
2023/01/10 07:08:16;;;;;;;;;;;;;;;4.90;100.00;101372.66;5024479;28;19932;-73
2023/01/10 07:10:42;;;;;;;;;;;;;;;4.92;100.00;101368.25;5011784;28;19974;-73
2023/01/10 07:13:07;;;;;;;;;;;;;;;4.93;100.00;101372.63;5006538;28;19939;-73
2023/01/10 07:15:33;;;;;;;;;;;;;;;4.92;100.00;101376.13;5014077;28;19926;-73
2023/01/10 07:17:58;;;;;;;;;;;;;;;4.92;100.00;101381.38;5026635;28;19976;-73
2023/01/10 07:20:24;;;;;;;;;;;;;;;4.92;100.00;101394.50;5024364;28;20447;-73
2023/01/10 07:22:53;;;;;;;;;;;;;;;4.86;100.00;101389.34;5024597;28;19925;-73
2023/01/10 07:25:19;;;;;;;;;;;;;;;4.83;100.00;101397.22;5024416;28;19933;-74
2023/01/10 07:27:44;;;;;;;;;;;;;;;4.78;100.00;101406.94;5024642;28;19975;-73
2023/01/10 07:30:10;;;;;;;;;;;;;;;4.73;100.00;101407.84;5025859;28;19998;-73
2023/01/10 07:32:35;;;;;;;;;;;;;;;4.68;100.00;101409.66;5025548;28;20429;-73
2023/01/10 07:35:01;;;;;;;;;;;;;;;4.62;100.00;101418.47;5025497;28;19971;-74
2023/01/10 07:37:26;;;;;;;;;;;;;;;4.56;100.00;101409.78;5008379;28;19929;-73
2023/01/10 07:39:51;;;;;;;;;;;;;;;4.51;100.00;101420.34;5023971;28;19929;-73
2023/01/10 07:42:17;;;;;;;;;;;;;;;4.48;100.00;101425.63;5005539;28;19936;-73
2023/01/10 07:44:42;;;;;;;;;;;;;;;4.44;100.00;101413.41;5021953;28;20375;-73
2023/01/10 07:47:08;;;;;;;;;;;;;;;4.40;100.00;101420.44;4991764;28;20404;-73
2023/01/10 07:49:33;;;;;;;;;;;;;;;4.36;100.00;101421.34;5026072;28;19963;-73
2023/01/10 07:51:59;;;;;;;;;;;;;;;4.33;100.00;101421.41;5021351;28;19937;-73
2023/01/10 07:54:24;;;;;;;;;;;;;;;4.30;100.00;101426.69;5024546;28;19955;-73
2023/01/10 07:56:50;;;;;;;;;;;;;;;4.27;100.00;101434.56;5009911;28;20014;-73
2023/01/10 07:59:15;;;;;;;;;;;;;;;4.24;100.00;101429.38;5028426;28;19932;-74
2023/01/10 08:01:40;;;;;;;;;;;;;;;4.21;100.00;101430.25;5012103;28;19943;-73
2023/01/10 08:04:06;;;;;;;;;;;;;;;4.19;100.00;101434.63;5026672;28;19939;-73
2023/01/10 08:06:31;;;;;;;;;;;;;;;4.16;100.00;101451.28;5005564;28;19929;-73
2023/01/10 08:08:57;;;;;;;;;;;;;;;4.15;100.00;101448.66;5019548;28;19929;-76
2023/01/10 08:11:22;;;;;;;;;;;;;;;4.13;100.00;101446.03;5020285;28;19929;-73
2023/01/10 08:13:48;;;;;;;;;;;;;;;4.13;100.00;101448.66;4972749;28;19976;-75
2023/01/10 08:16:14;;;;;;;;;;;;;;;4.13;100.00;101459.16;5000623;28;20474;-75
2023/01/10 08:18:41;;;;;;;;;;;;;;;4.13;100.00;101459.16;4989102;28;20031;-75
2023/01/10 08:21:07;;;;;;;;;;;;;;;4.11;100.00;101463.53;5021117;28;20562;-76
2023/01/10 08:23:33;;;;;;;;;;;;;;;4.08;100.00;101455.69;5002264;28;20031;-77
2023/01/10 08:25:59;;;;;;;;;;;;;;;4.07;100.00;101462.69;4993000;28;19962;-74
2023/01/10 08:28:25;;;;;;;;;;;;;;;4.07;100.00;101465.31;5001017;28;19948;-74
2023/01/10 08:30:54;;;;;;;;;;;;;;;4.07;100.00;101464.44;5021063;28;19929;-73
2023/01/10 08:33:20;;;;;;;;;;;;;;;4.06;100.00;101465.31;5022560;28;19931;-73
2023/01/10 08:35:45;;;;;;;;;;;;;;;4.07;100.00;101465.31;5022963;28;19929;-73
2023/01/10 08:38:11;;;;;;;;;;;;;;;4.10;100.00;101466.16;5021216;28;20016;-73
2023/01/10 08:40:36;;;;;;;;;;;;;;;4.13;100.00;101466.16;5021542;28;19937;-73
2023/01/10 08:43:04;;;;;;;;;;;;;;;4.14;100.00;101468.75;5016681;28;19929;-75
2023/01/10 08:45:29;;;;;;;;;;;;;;;4.17;100.00;101473.09;5001837;28;19979;-75
2023/01/10 08:47:54;;;;;;;;;;;;;;;4.18;100.00;101486.19;4999298;28;20051;-75
2023/01/10 08:50:20;;;;;;;;;;;;;;;4.19;100.00;101477.44;5021138;28;20132;-75
2023/01/10 08:52:45;;;;;;;;;;;;;;;4.23;100.00;101485.31;5009174;28;19951;-75
2023/01/10 08:55:11;;;;;;;;;;;;;;;4.25;100.00;101475.66;4989957;28;20008;-75
2023/01/10 08:57:36;;;;;;;;;;;;;;;4.27;100.00;101479.13;5008780;28;19929;-75
2023/01/10 09:00:02;;;;;;;;;;;;;;;4.30;100.00;101469.47;5007373;28;20012;-75
2023/01/10 09:02:28;;;;;;;;;;;;;;;4.35;100.00;101475.56;5010062;28;19929;-75
2023/01/10 09:04:53;;;;;;;;;;;;;;;4.42;100.00;101476.34;5021535;28;20114;-75
2023/01/10 09:07:19;;;;;;;;;;;;;;;4.51;100.00;101477.19;4998699;28;21140;-76
2023/01/10 09:09:44;;;;;;;;;;;;;;;4.58;100.00;101481.47;5008597;28;19980;-75
2023/01/10 09:14:54;;;;;;;;;;;;;;;4.72;100.00;101486.56;5020509;28;20619;-75
2023/01/10 09:17:19;;;;;;;;;;;;;;;4.79;100.00;101490.00;5021165;28;19932;-75
2023/01/10 09:19:45;;;;;;;;;;;;;;;4.84;100.00;101486.44;5018740;28;19940;-75
2023/01/10 09:22:10;;;;;;;;;;;;;;;4.90;100.00;101490.72;4983716;28;20008;-75
2023/01/10 09:24:37;;;;;;;;;;;;;;;4.94;100.00;101487.19;4991314;28;19964;-75
2023/01/10 09:27:02;;;;;;;;;;;;;;;5.01;100.00;101485.38;5020789;28;19936;-74
2023/01/10 09:29:28;;;;;;;;;;;;;;;5.08;100.00;101492.28;5001884;28;20151;-75
2023/01/10 09:31:53;;;;;;;;;;;;;;;5.13;100.00;101484.34;5015746;28;19932;-74
2023/01/10 09:34:19;;;;;;;;;;;;;;;5.17;100.00;101480.78;5005488;28;19931;-75
2023/01/10 09:36:44;;;;;;;;;;;;;;;5.21;100.00;101495.63;5014917;28;19929;-76
2023/01/10 09:39:09;;;;;;;;;;;;;;;5.24;100.00;101484.22;5017170;28;20027;-75
2023/01/10 09:41:41;;;;;;;;;;;;;;;5.26;100.00;101482.44;5019418;28;19976;-75
2023/01/10 09:44:25;;;;;;;;;;;;;;;5.28;100.00;101478.91;5001252;28;19936;-75
2023/01/10 09:46:53;;;;;;;;;;;;;;;5.30;100.00;101485.00;5014768;28;19933;-75
2023/01/10 09:49:40;;;;;;;;;;;;;;;5.33;100.00;101475.38;5018747;28;19931;-74
2023/01/10 09:52:10;;;;;;;;;;;;;;;5.35;100.00;101481.44;5017943;28;20382;-74
2023/01/10 09:54:37;;;;;;;;;;;;;;;5.36;100.00;101480.56;4997395;28;20018;-74
2023/01/10 09:57:02;;;;;;;;;;;;;;;5.38;100.00;101490.16;5006346;28;20003;-74
2023/01/10 09:59:36;;;;;;;;;;;;;;;5.41;100.00;101486.63;4993643;28;20424;-75
2023/01/10 10:02:27;;;;;;;;;;;;;;;5.42;100.00;101480.47;5013655;28;20055;-74
2023/01/10 10:05:13;;;;;;;;;;;;;;;5.46;100.00;101470.78;5011665;28;19932;-74
2023/01/10 10:07:38;;;;;;;;;;;;;;;5.48;100.00;101479.50;4990691;28;20483;-74
2023/01/10 10:10:05;;;;;;;;;;;;;;;5.48;100.00;101480.41;4999642;28;19929;-76
2023/01/10 10:12:35;;;;;;;;;;;;;;;5.51;100.00;101472.47;5012323;28;19932;-76
2023/01/10 10:15:07;;;;;;;;;;;;;;;5.51;100.00;101459.31;4990426;28;19956;-76
2023/01/10 10:17:36;;;;;;;;;;;;;;;5.52;100.00;101463.72;5012195;28;21709;-77
2023/01/10 10:20:14;;;;;;;;;;;;;;;5.54;100.00;101461.94;5010643;28;19951;-76
2023/01/10 10:22:42;;;;;;;;;;;;;;;5.55;100.00;101455.78;5011753;28;19971;-76
2023/01/10 10:25:07;;;;;;;;;;;;;;;5.55;100.00;101461.03;5010535;28;20063;-76
2023/01/10 10:27:38;;;;;;;;;;;;;;;5.57;100.00;101459.22;5010103;28;20379;-76
2023/01/10 10:30:07;;;;;;;;;;;;;;;5.57;100.00;101464.50;5008992;28;19992;-75
2023/01/10 10:32:52;;;;;;;;;;;;;;;5.58;100.00;101462.75;5011519;28;19929;-75
2023/01/10 10:35:21;;;;;;;;;;;;;;;5.58;100.00;101465.38;4999593;28;20019;-77
2023/01/10 10:37:49;;;;;;;;;;;;;;;5.58;100.00;101458.34;5011394;28;19948;-76
2023/01/10 10:40:18;;;;;;;;;;;;;;;5.59;100.00;101456.59;4995226;28;20087;-76
2023/01/10 10:42:46;;;;;;;;;;;;;;;5.58;100.00;101439.09;4984286;28;20689;-76
2023/01/10 10:45:30;;;;;;;;;;;;;;;5.60;100.00;101444.34;5013905;28;19976;-76
2023/01/10 10:47:57;;;;;;;;;;;;;;;5.61;100.00;101444.28;5016280;28;21970;-76
2023/01/10 10:50:34;;;;;;;;;;;;;;;5.63;100.00;101444.28;5011190;28;19925;-76
2023/01/10 10:53:00;;;;;;;;;;;;;;;5.63;100.00;101433.78;5003283;28;20411;-76
2023/01/10 10:55:33;;;;;;;;;;;;;;;5.64;100.00;101431.13;5014909;28;19986;-75
2023/01/10 10:57:58;;;;;;;;;;;;;;;5.65;100.00;101424.09;5009432;28;19929;-75
2023/01/10 11:00:24;;;;;;;;;;;;;;;5.65;100.00;101431.97;4996965;28;19939;-76
2023/01/10 11:02:59;;;;;;;;;;;;;;;5.66;100.00;101428.50;4997675;28;19925;-75
2023/01/10 11:05:28;;;;;;;;;;;;;;;5.66;100.00;101431.13;5013839;28;19929;-75
2023/01/10 11:07:54;;;;;;;;;;;;;;;5.66;100.00;101420.59;5014153;28;19976;-75
2023/01/10 11:12:46;;;;;;;;;;;;;;;5.66;100.00;101418.84;4993730;28;19929;-75
2023/01/10 11:15:32;;;;;;;;;;;;;;;5.65;100.00;101418.84;4996421;28;19987;-75
2023/01/10 11:18:17;;;;;;;;;;;;;;;5.64;100.00;101415.38;5013586;28;19936;-75
2023/01/10 11:20:46;;;;;;;;;;;;;;;5.63;100.00;101416.28;5015482;28;20064;-75
2023/01/10 11:23:12;;;;;;;;;;;;;;;5.64;100.00;101407.50;4998677;28;20393;-75
2023/01/10 11:25:38;;;;;;;;;;;;;;;5.63;100.00;101402.25;4998677;28;19929;-75
2023/01/10 11:28:05;;;;;;;;;;;;;;;5.63;100.00;101400.50;4995102;28;19983;-75
2023/01/10 11:30:30;;;;;;;;;;;;;;;5.63;100.00;101391.75;5011441;28;19932;-76
2023/01/10 11:33:06;;;;;;;;;;;;;;;5.60;100.00;101395.28;5012437;28;19957;-75
2023/01/10 11:35:40;;;;;;;;;;;;;;;5.60;100.00;101397.91;5012603;28;19932;-76
2023/01/10 11:38:05;;;;;;;;;;;;;;;5.59;100.00;101393.56;5012857;28;19983;-77
2023/01/10 11:40:36;;;;;;;;;;;;;;;5.57;100.00;101396.19;5013749;28;19932;-78
2023/01/10 11:43:21;;;;;;;;;;;;;;;5.56;100.00;101389.22;5013055;28;19925;-76
2023/01/10 11:45:46;;;;;;;;;;;;;;;5.56;100.00;101381.31;5016321;28;19924;-74
2023/01/10 11:48:20;;;;;;;;;;;;;;;5.54;100.00;101383.13;5008735;28;19931;-74
2023/01/10 11:50:49;;;;;;;;;;;;;;;5.54;100.00;101383.13;5018070;28;19929;-75
2023/01/10 11:53:40;;;;;;;;;;;;;;;5.53;100.00;101388.38;5000775;28;20561;-75
2023/01/10 11:56:07;;;;;;;;;;;;;;;5.50;100.00;101377.94;5015672;28;19970;-76
2023/01/10 11:58:32;;;;;;;;;;;;;;;5.46;100.00;101371.88;5018011;28;19928;-75
2023/01/10 12:00:58;;;;;;;;;;;;;;;5.43;100.00;101382.41;5002086;28;19921;-77
2023/01/10 12:03:31;;;;;;;;;;;;;;;5.39;100.00;101364.97;4986884;28;20895;-74
2023/01/10 12:06:00;;;;;;;;;;;;;;;5.34;100.00;101372.06;5017107;28;20399;-76
2023/01/10 12:08:27;;;;;;;;;;;;;;;5.32;100.00;101364.19;5002608;28;19929;-76
2023/01/10 12:11:00;;;;;;;;;;;;;;;5.29;100.00;101361.63;5000387;28;20043;-76
2023/01/10 12:13:26;;;;;;;;;;;;;;;5.25;100.00;101352.94;5022519;28;20339;-75
2023/01/10 12:15:52;;;;;;;;;;;;;;;5.24;100.00;101350.31;5005417;28;19925;-75
2023/01/10 12:18:18;;;;;;;;;;;;;;;5.21;100.00;101335.47;5008404;28;20882;-75
2023/01/10 12:20:47;;;;;;;;;;;;;;;5.21;100.00;101345.09;5010735;28;19924;-76
2023/01/10 12:23:15;;;;;;;;;;;;;;;5.19;100.00;101331.13;5005155;28;19925;-76
2023/01/10 12:25:41;;;;;;;;;;;;;;;5.18;100.00;101337.28;5008252;28;19937;-76
2023/01/10 12:28:12;;;;;;;;;;;;;;;5.17;100.00;101323.28;5005357;28;20022;-76
2023/01/10 12:30:42;;;;;;;;;;;;;;;5.15;100.00;101322.44;5025031;28;20004;-76
2023/01/10 12:33:12;;;;;;;;;;;;;;;5.12;100.00;101317.25;5006263;28;20085;-76
2023/01/10 12:35:56;;;;;;;;;;;;;;;5.10;100.00;101325.16;5008327;28;19940;-76
2023/01/10 12:41:10;;;;;;;;;;;;;;;5.08;100.00;101316.44;5020879;28;19978;-77
2023/01/10 12:46:22;;;;;;;;;;;;;;;5.06;100.00;101331.31;5005102;28;20417;-78
2023/01/10 12:48:52;;;;;;;;;;;;;;;5.04;100.00;101333.09;4999498;28;19928;-77
2023/01/10 12:51:19;;;;;;;;;;;;;;;5.03;100.00;101336.63;5002667;28;19924;-77
2023/01/10 12:53:46;;;;;;;;;;;;;;;5.02;100.00;101335.75;4989123;28;19929;-76
2023/01/10 12:56:12;;;;;;;;;;;;;;;5.01;100.00;101328.75;4996572;28;19924;-77